Northeast Philadelphia Airport
KPNE : rendu visible

Aérodrome :











RETROUVEZ-NOUS SUR...

 
LOGIN :

S'inscrire | Disclaimer

   EN    FR    IT 

 









Légende :    VFR   VFR Marginal   IFR   IFR Intensif   IFR Très Intensif
Visi : 
Plafond : 
>= 8 km
>= 3000ft
5 à 8 km
1000 à 3000 ft
1500m à 5 km
500 à 1000 ft
800 à 1500m
200 à 500 ft
< 800m
< 200 ft
Symboles :   Orages  Brouillard  Fortes neiges  Fortes précipitations  Vent > 20 kt







- Altitude de l'aérodrome : 120 ft


KPNE - Northeast Philadelphia

DERNIER METAR :
  • 250454Z AUTO 00000KT 10SM CLR 17/11 A3025 RMK AO2 SLP242 T01720111 402720167

METARs EXPIRÉS :
  • 250354Z AUTO 00000KT 10SM CLR 18/11 A3025 RMK AO2 SLP242 T01780111
  • 250254Z 01003KT 10SM CLR 18/11 A3024 RMK AO2 SLP241 T01830111 51014

TAF KPNE
Valide du 25 à 00h jusqu'au 26 à 00h UTC


242325Z 2500/2524 03006KT P6SM SKC
FM251200 05008KT P6SM SCT050
FM251400 06013KT P6SM BKN040
Pas de NOTAMs connus pour ce terrain.



MET'MAP, la Météo Aéronautique d'un coup d'oeil ! - Copyright ORBIFLY Décembre 2007 - Disclaimer

ORBIFLY MET'MAP TEAM :

Programmation & Développement : Alexandra Zaïnal
Conception & Développement : Baudouin d'Aumeries
Co-Programmation & Développement : Marc-Olivier Méhu
Soutien technique & logistique : Manuel Goepfert

Contact : metmap@orbifly.com




SOURCES & CREDITS :

   NOAA       Earth
Advisory